Time;durP1;ratioP1;P1;durP2;ratioP2;P2;SDS_P1;SDS_P2;PMS_P1;PMS_P2;Temp;Humidity;BMP_temperature;BMP_pressure;BME280_temperature;BME280_humidity;BME280_pressure;Samples;Min_cycle;Max_cycle;Signal;HPM_P1;HPM_P2
2021/03/01 00:00:35;;;;;;;239.82;87.30;;;153.90;1561.60;;;;;;5055085;28;20026;-69
2021/03/01 00:03:01;;;;;;;252.73;90.60;;;153.90;1561.60;;;;;;5054391;28;20414;-69
2021/03/01 00:05:27;;;;;;;223.90;77.57;;;153.80;1561.60;;;;;;5036939;28;20033;-69
2021/03/01 00:07:53;;;;;;;225.40;85.35;;;153.80;1561.60;;;;;;5054594;28;20471;-69
2021/03/01 00:10:19;;;;;;;233.70;89.97;;;153.80;1587.20;;;;;;5054627;28;20486;-69
2021/03/01 00:12:45;;;;;;;238.95;92.13;;;153.70;1561.60;;;;;;5054699;28;20033;-69
2021/03/01 00:15:14;;;;;;;226.77;89.72;;;153.70;1561.60;;;;;;5054384;28;20378;-71
2021/03/01 00:17:41;;;;;;;197.10;78.88;;;153.70;1587.20;;;;;;5054633;28;20039;-68
2021/03/01 00:20:09;;;;;;;167.63;66.18;;;153.70;1587.20;;;;;;5054579;28;20029;-68
2021/03/01 00:22:35;;;;;;;199.82;78.80;;;153.60;1587.20;;;;;;5036515;28;20032;-68
2021/03/01 00:25:02;;;;;;;244.55;90.18;;;153.60;1587.20;;;;;;5054594;28;20114;-68
2021/03/01 00:27:28;;;;;;;216.35;85.50;;;153.60;1587.20;;;;;;5036485;28;20130;-68
2021/03/01 00:29:54;;;;;;;220.40;86.95;;;153.60;1587.20;;;;;;5054533;28;20021;-67
2021/03/01 00:32:20;;;;;;;266.90;102.63;;;128.90;1587.20;;;;;;5054542;28;20089;-68
2021/03/01 00:34:45;;;;;;;213.40;85.53;;;128.90;1587.20;;;;;;5054325;28;20032;-68
2021/03/01 00:37:11;;;;;;;161.50;68.75;;;128.90;1587.20;;;;;;5053313;28;20053;-70
2021/03/01 00:39:38;;;;;;;116.35;56.28;;;128.90;1587.20;;;;;;5054366;28;20029;-71
2021/03/01 00:42:03;;;;;;;107.38;49.38;;;128.90;1587.20;;;;;;5053666;28;20025;-71
2021/03/01 00:44:30;;;;;;;96.32;47.42;;;128.90;1587.20;;;;;;5054342;28;20029;-71
2021/03/01 00:46:56;;;;;;;101.65;49.35;;;128.80;1587.20;;;;;;5054325;28;20033;-71
2021/03/01 00:49:22;;;;;;;151.35;66.00;;;128.80;1587.20;;;;;;5054060;28;20033;-70
2021/03/01 00:51:48;;;;;;;169.38;72.70;;;128.80;1587.20;;;;;;5054087;28;20086;-71
2021/03/01 00:54:14;;;;;;;121.53;55.95;;;128.70;1587.20;;;;;;5054064;28;20024;-68
2021/03/01 00:56:39;;;;;;;102.75;50.15;;;128.70;1612.80;;;;;;5054062;28;20029;-71
2021/03/01 00:59:05;;;;;;;120.32;59.08;;;128.70;1612.80;;;;;;5054092;28;20032;-70
2021/03/01 01:01:31;;;;;;;125.13;58.72;;;128.70;1612.80;;;;;;5053502;28;20426;-71
2021/03/01 01:03:56;;;;;;;113.05;53.65;;;128.70;1612.80;;;;;;5054021;28;20032;-71
2021/03/01 01:06:22;;;;;;;105.70;51.58;;;128.70;1612.80;;;;;;5053869;28;20114;-72
2021/03/01 01:08:48;;;;;;;102.80;50.42;;;128.60;1612.80;;;;;;5053836;28;20120;-71
2021/03/01 01:11:13;;;;;;;95.95;48.13;;;128.60;1612.80;;;;;;5053815;28;20025;-71
2021/03/01 01:13:39;;;;;;;115.82;54.90;;;128.60;1612.80;;;;;;5053569;28;20091;-71
2021/03/01 01:16:05;;;;;;;139.48;66.47;;;128.60;1612.80;;;;;;5053585;28;20032;-67
2021/03/01 01:18:31;;;;;;;138.50;66.60;;;128.50;1612.80;;;;;;5053411;28;20025;-67
2021/03/01 01:20:57;;;;;;;120.82;60.45;;;128.50;1612.80;;;;;;5053615;28;20033;-67
2021/03/01 01:23:22;;;;;;;108.97;52.45;;;128.50;1638.40;;;;;;5053213;28;20554;-68
2021/03/01 01:25:48;;;;;;;91.97;45.97;;;128.50;1638.40;;;;;;5053460;28;20115;-69
2021/03/01 01:28:14;;;;;;;73.63;40.10;;;128.50;1638.40;;;;;;5053290;28;20128;-69
2021/03/01 01:30:40;;;;;;;85.55;43.70;;;128.50;1612.80;;;;;;5052866;28;20059;-68
2021/03/01 01:33:06;;;;;;;100.60;49.30;;;128.50;1612.80;;;;;;5053317;28;20029;-68
2021/03/01 01:35:32;;;;;;;106.68;51.85;;;128.40;1612.80;;;;;;5052781;28;20037;-70
2021/03/01 01:37:57;;;;;;;87.22;46.03;;;128.40;1638.40;;;;;;5056634;28;20024;-70
2021/03/01 01:40:24;;;;;;;89.43;46.35;;;128.40;1638.40;;;;;;5057626;28;20029;-69
2021/03/01 01:42:51;;;;;;;123.22;59.80;;;128.30;1638.40;;;;;;5039656;28;20033;-69
2021/03/01 01:45:20;;;;;;;128.57;61.05;;;128.30;1638.40;;;;;;5058888;28;20042;-70
2021/03/01 01:47:48;;;;;;;140.38;63.95;;;128.30;1638.40;;;;;;5057008;28;20371;-69
2021/03/01 01:50:15;;;;;;;146.32;66.15;;;128.30;1638.40;;;;;;5057446;28;20025;-69
2021/03/01 01:52:41;;;;;;;143.05;65.57;;;128.30;1638.40;;;;;;5057309;28;20079;-69
2021/03/01 01:55:08;;;;;;;138.13;62.63;;;128.30;1638.40;;;;;;5057261;28;20029;-69
2021/03/01 01:57:36;;;;;;;117.07;53.45;;;128.20;1638.40;;;;;;5039396;28;20025;-69
2021/03/01 02:00:19;;;;;;;93.68;45.83;;;128.20;1638.40;;;;;;5057340;28;20033;-70
2021/03/01 02:02:51;;;;;;;93.90;45.60;;;128.20;1638.40;;;;;;5057072;28;20386;-70
2021/03/01 02:05:17;;;;;;;133.65;58.15;;;128.10;1638.40;;;;;;5057055;28;20048;-70
2021/03/01 02:08:03;;;;;;;135.15;60.10;;;128.10;1638.40;;;;;;5056827;28;20033;-69
2021/03/01 02:10:55;;;;;;;108.60;49.50;;;128.10;1638.40;;;;;;5056866;28;20053;-69
2021/03/01 02:13:29;;;;;;;88.18;42.80;;;128.10;1664.00;;;;;;5056921;28;20071;-69
2021/03/01 02:16:28;;;;;;;71.93;38.78;;;128.00;1664.00;;;;;;5039052;28;20064;-69
2021/03/01 02:18:54;;;;;;;69.90;36.58;;;128.00;1664.00;;;;;;5056131;28;20383;-72
2021/03/01 02:21:20;;;;;;;66.45;34.78;;;128.00;1664.00;;;;;;5056663;28;20032;-70
2021/03/01 02:23:46;;;;;;;64.15;34.97;;;103.30;1638.40;;;;;;5056709;28;20025;-71
2021/03/01 02:26:16;;;;;;;67.20;35.53;;;103.30;1638.40;;;;;;5056826;28;20099;-72
2021/03/01 02:28:45;;;;;;;90.75;43.78;;;103.30;1638.40;;;;;;5060558;28;20021;-72
2021/03/01 02:31:12;;;;;;;103.55;48.13;;;103.30;1638.40;;;;;;5056772;28;20021;-71
2021/03/01 02:33:43;;;;;;;106.22;47.63;;;103.30;1638.40;;;;;;5056430;28;20025;-68
2021/03/01 02:36:20;;;;;;;103.22;46.53;;;103.30;1638.40;;;;;;5056241;28;20044;-68
2021/03/01 02:38:47;;;;;;;85.75;42.55;;;103.30;1638.40;;;;;;5056568;28;20048;-69
2021/03/01 02:41:14;;;;;;;76.15;38.47;;;103.30;1638.40;;;;;;5056023;28;20024;-69
2021/03/01 02:43:41;;;;;;;68.85;33.80;;;103.30;1638.40;;;;;;5038282;28;20367;-69
2021/03/01 02:46:08;;;;;;;66.55;33.83;;;103.20;1638.40;;;;;;5056390;28;20104;-70
2021/03/01 02:48:36;;;;;;;64.78;31.92;;;103.20;1638.40;;;;;;5054804;28;20033;-69
2021/03/01 02:51:04;;;;;;;55.47;29.70;;;103.20;1638.40;;;;;;5056370;28;20029;-69
2021/03/01 02:53:31;;;;;;;60.13;30.65;;;103.10;1638.40;;;;;;5055924;28;20043;-69
2021/03/01 02:55:58;;;;;;;54.60;31.17;;;103.10;1638.40;;;;;;5038492;28;20025;-70
2021/03/01 02:58:27;;;;;;;51.47;29.60;;;103.10;1638.40;;;;;;5055207;28;20029;-71
2021/03/01 03:00:54;;;;;;;55.85;30.65;;;103.10;1638.40;;;;;;5038166;28;20553;-67
2021/03/01 03:03:20;;;;;;;61.75;32.60;;;103.10;1638.40;;;;;;5056173;28;20024;-66
2021/03/01 03:05:47;;;;;;;59.88;33.17;;;103.10;1638.40;;;;;;5055975;28;20366;-67
2021/03/01 03:08:14;;;;;;;64.68;34.40;;;103.00;1638.40;;;;;;5055837;28;20040;-66
2021/03/01 03:10:41;;;;;;;74.15;37.67;;;103.10;1638.40;;;;;;5055828;28;20360;-66
2021/03/01 03:13:09;;;;;;;98.40;45.30;;;103.10;1638.40;;;;;;5055922;28;20104;-67
2021/03/01 03:15:36;;;;;;;107.97;50.08;;;103.00;1638.40;;;;;;5055716;28;20569;-67
2021/03/01 03:18:04;;;;;;;103.55;48.20;;;103.00;1638.40;;;;;;5055892;28;20382;-67
2021/03/01 03:20:30;;;;;;;97.18;46.05;;;103.00;1638.40;;;;;;5055884;28;20383;-67
2021/03/01 03:22:55;;;;;;;108.05;45.80;;;103.00;1664.00;;;;;;5055788;28;20030;-66
2021/03/01 03:25:21;;;;;;;75.20;37.30;;;103.00;1664.00;;;;;;5055740;28;20021;-67
2021/03/01 03:27:47;;;;;;;73.20;35.05;;;103.00;1664.00;;;;;;5055592;28;20124;-67
2021/03/01 03:30:21;;;;;;;51.05;27.80;;;103.00;1664.00;;;;;;5037674;28;20029;-66
2021/03/01 03:32:48;;;;;;;49.95;26.08;;;103.00;1664.00;;;;;;5055758;28;20036;-67
2021/03/01 03:35:14;;;;;;;53.95;26.52;;;103.00;1664.00;;;;;;5054854;28;20025;-66
2021/03/01 03:38:04;;;;;;;50.10;26.77;;;102.90;1664.00;;;;;;5055377;28;20040;-66
2021/03/01 03:40:31;;;;;;;49.88;24.75;;;102.90;1664.00;;;;;;4974537;28;20035;-70
2021/03/01 03:42:58;;;;;;;62.83;32.42;;;102.90;1664.00;;;;;;4974800;28;20495;-71
2021/03/01 03:45:25;;;;;;;83.07;35.97;;;102.90;1664.00;;;;;;4974515;28;20031;-73
2021/03/01 03:47:53;;;;;;;89.22;40.33;;;102.90;1664.00;;;;;;4974486;28;20089;-71
2021/03/01 03:50:22;;;;;;;88.00;39.15;;;102.90;1664.00;;;;;;4974440;28;20031;-74
2021/03/01 03:52:53;;;;;;;78.65;35.63;;;102.90;1689.60;;;;;;4974230;28;20054;-70
2021/03/01 03:55:20;;;;;;;83.40;37.92;;;102.90;1689.60;;;;;;4974641;28;20023;-69
2021/03/01 03:57:54;;;;;;;77.50;34.67;;;102.90;1664.00;;;;;;4974163;28;20039;-73
2021/03/01 04:00:22;;;;;;;57.28;29.35;;;102.90;1664.00;;;;;;4974183;28;20030;-68
2021/03/01 04:02:53;;;;;;;51.63;26.48;;;102.90;1664.00;;;;;;4974210;28;20031;-70
2021/03/01 04:05:20;;;;;;;66.85;32.25;;;102.90;1664.00;;;;;;4974342;28;20082;-76
2021/03/01 04:07:47;;;;;;;79.35;36.92;;;102.80;1664.00;;;;;;4973898;28;20039;-69
2021/03/01 04:10:13;;;;;;;77.93;34.28;;;102.80;1664.00;;;;;;4973866;28;20033;-69
2021/03/01 04:12:41;;;;;;;56.28;26.33;;;102.80;1689.60;;;;;;4973772;28;20031;-68
2021/03/01 04:15:10;;;;;;;41.22;21.90;;;102.70;1664.00;;;;;;4974013;28;20027;-68
2021/03/01 04:17:38;;;;;;;40.03;21.88;;;102.70;1638.40;;;;;;4998507;28;20394;-68
2021/03/01 04:20:06;;;;;;;40.95;22.55;;;102.70;1664.00;;;;;;5054829;28;20037;-69
2021/03/01 04:22:33;;;;;;;42.80;23.38;;;102.60;1664.00;;;;;;5054417;28;20510;-69
2021/03/01 04:25:00;;;;;;;40.42;22.48;;;102.60;1664.00;;;;;;5054435;28;20025;-69
2021/03/01 04:27:27;;;;;;;55.53;28.08;;;102.50;1664.00;;;;;;5036364;28;20037;-68
2021/03/01 04:29:54;;;;;;;95.85;40.72;;;102.50;1689.60;;;;;;5054626;28;20036;-68
2021/03/01 04:32:20;;;;;;;78.40;36.60;;;102.40;1664.00;;;;;;5054481;28;20155;-69
2021/03/01 04:34:47;;;;;;;61.30;30.52;;;102.40;1689.60;;;;;;5054453;28;20028;-68
2021/03/01 04:37:13;;;;;;;46.80;25.20;;;102.40;1689.60;;;;;;5053395;28;20059;-69
2021/03/01 04:39:39;;;;;;;50.03;25.80;;;77.60;1689.60;;;;;;5054316;28;20442;-69
2021/03/01 04:42:05;;;;;;;95.25;47.60;;;77.60;1689.60;;;;;;5054212;28;20486;-68
2021/03/01 04:44:32;;;;;;;121.43;54.38;;;77.60;1715.20;;;;;;5054534;28;20078;-69
2021/03/01 04:46:59;;;;;;;92.75;44.53;;;77.60;1715.20;;;;;;5036206;28;20033;-68
2021/03/01 04:49:26;;;;;;;67.00;33.30;;;77.50;1740.80;;;;;;5053259;28;20063;-69
2021/03/01 04:51:53;;;;;;;56.45;29.98;;;77.50;1715.20;;;;;;5054054;28;20029;-69
2021/03/01 04:54:20;;;;;;;71.10;32.50;;;77.50;1740.80;;;;;;5054239;28;20060;-68
2021/03/01 04:56:47;;;;;;;55.13;27.38;;;77.50;1740.80;;;;;;5053862;28;20360;-69
2021/03/01 04:59:18;;;;;;;41.40;23.85;;;77.40;1740.80;;;;;;5036075;28;20426;-69
2021/03/01 05:01:45;;;;;;;43.55;22.50;;;77.40;1740.80;;;;;;5054019;28;20029;-69
2021/03/01 05:04:11;;;;;;;53.50;27.73;;;77.40;1740.80;;;;;;5053751;28;20029;-68
2021/03/01 05:06:38;;;;;;;58.85;29.08;;;77.30;1740.80;;;;;;5053765;28;20118;-68
2021/03/01 05:09:04;;;;;;;55.45;27.70;;;77.30;1740.80;;;;;;5053438;28;20040;-68
2021/03/01 05:11:35;;;;;;;46.63;25.77;;;77.30;1740.80;;;;;;5053076;28;20032;-68
2021/03/01 05:14:03;;;;;;;61.88;32.42;;;77.30;1740.80;;;;;;5053819;28;20036;-70
2021/03/01 05:16:29;;;;;;;55.55;29.88;;;77.30;1740.80;;;;;;5053597;28;20029;-70
2021/03/01 05:18:56;;;;;;;50.90;24.75;;;77.20;1740.80;;;;;;5035784;28;20041;-69
2021/03/01 05:21:22;;;;;;;49.50;25.00;;;77.20;1766.40;;;;;;5035913;28;20378;-69
2021/03/01 05:23:48;;;;;;;42.22;22.65;;;77.20;1766.40;;;;;;5053524;28;20033;-69
2021/03/01 05:26:15;;;;;;;56.42;28.00;;;77.20;1766.40;;;;;;5053691;28;20025;-69
2021/03/01 05:28:41;;;;;;;62.08;31.05;;;77.20;1766.40;;;;;;5053773;28;20029;-69
2021/03/01 05:31:07;;;;;;;72.85;35.92;;;77.20;1766.40;;;;;;5053696;28;20103;-68
2021/03/01 05:33:33;;;;;;;76.70;39.65;;;77.20;1766.40;;;;;;5053651;28;20373;-68
2021/03/01 05:35:59;;;;;;;69.68;37.60;;;77.20;1766.40;;;;;;5053317;28;20049;-69
2021/03/01 05:38:25;;;;;;;60.50;34.65;;;77.10;1792.00;;;;;;5053586;28;20417;-69
2021/03/01 05:40:51;;;;;;;72.82;39.58;;;77.10;1766.40;;;;;;5053562;28;20040;-69
2021/03/01 05:43:18;;;;;;;76.97;40.58;;;77.20;1766.40;;;;;;5053500;28;20025;-69
2021/03/01 05:45:45;;;;;;;60.90;36.13;;;77.20;1766.40;;;;;;5053631;28;20039;-68
2021/03/01 05:48:12;;;;;;;88.97;52.53;;;77.20;1766.40;;;;;;5053196;28;20041;-68
2021/03/01 05:50:42;;;;;;;84.38;44.53;;;77.20;1792.00;;;;;;5052576;28;20418;-68
2021/03/01 05:53:16;;;;;;;176.38;83.30;;;77.20;1766.40;;;;;;5053234;28;20462;-69
2021/03/01 05:55:42;;;;;;;;;;;77.20;1792.00;;;;;;5053993;28;20025;-68
2021/03/01 05:58:10;;;;;;;136.95;79.38;;;77.30;1792.00;;;;;;5053436;28;20035;-68
2021/03/01 06:00:36;;;;;;;82.95;50.78;;;77.20;1792.00;;;;;;5053288;28;20025;-69
2021/03/01 06:03:02;;;;;;;73.15;42.47;;;77.30;1792.00;;;;;;5053318;28;20185;-69
2021/03/01 06:05:28;;;;;;;59.80;32.42;;;77.30;1792.00;;;;;;5053397;28;20048;-69
2021/03/01 06:07:57;;;;;;;82.45;41.03;;;77.30;1792.00;;;;;;5053272;28;20168;-69
2021/03/01 06:10:23;;;;;;;84.57;40.85;;;77.40;1792.00;;;;;;5053314;28;20025;-68
2021/03/01 06:12:49;;;;;;;75.05;36.42;;;77.40;1817.60;;;;;;5053351;28;20032;-69
2021/03/01 06:15:16;;;;;;;56.13;31.17;;;77.40;1792.00;;;;;;5053296;28;20029;-68
2021/03/01 06:18:02;;;;;;;61.90;32.92;;;77.50;1792.00;;;;;;5053280;28;20100;-68
2021/03/01 06:20:27;;;;;;;54.70;30.70;;;77.50;1817.60;;;;;;5053027;28;20033;-68
2021/03/01 06:22:53;;;;;;;48.70;27.00;;;77.50;1817.60;;;;;;5054529;28;20032;-69
2021/03/01 06:25:19;;;;;;;38.70;23.20;;;77.50;1817.60;;;;;;5057022;28;20112;-69
2021/03/01 06:27:49;;;;;;;39.38;23.00;;;77.60;1817.60;;;;;;5056838;28;20033;-68
2021/03/01 06:30:15;;;;;;;35.05;21.25;;;77.60;1817.60;;;;;;5056958;28;20025;-69
2021/03/01 06:32:41;;;;;;;39.72;22.90;;;77.60;1817.60;;;;;;5056706;28;20078;-69
2021/03/01 06:35:42;;;;;;;37.97;22.05;;;77.70;1817.60;;;;;;5056858;28;20020;-68
2021/03/01 06:38:31;;;;;;;37.22;23.23;;;77.70;1817.60;;;;;;5056417;28;20037;-69
2021/03/01 06:41:16;;;;;;;151.95;83.15;;;77.70;1817.60;;;;;;5056428;28;20117;-69
2021/03/01 06:44:01;;;;;;;128.68;74.80;;;102.40;1817.60;;;;;;5056558;28;20028;-68
2021/03/01 06:46:30;;;;;;;144.40;88.50;;;102.40;1817.60;;;;;;5056592;28;20103;-68
2021/03/01 06:49:14;;;;;;;121.60;80.57;;;102.40;1817.60;;;;;;5037959;28;20556;-69
2021/03/01 06:51:40;;;;;;;85.88;48.47;;;102.40;1817.60;;;;;;5056506;28;20080;-68
2021/03/01 06:54:06;;;;;;;57.85;34.58;;;102.50;1843.20;;;;;;5056709;28;20513;-68
2021/03/01 06:56:42;;;;;;;66.38;34.78;;;102.50;1843.20;;;;;;5056205;28;20485;-69
2021/03/01 06:59:12;;;;;;;62.30;34.95;;;102.60;1843.20;;;;;;5056398;28;20032;-69
2021/03/01 07:01:49;;;;;;;150.05;97.93;;;102.60;1843.20;;;;;;5056398;28;20040;-68
2021/03/01 07:04:22;;;;;;;89.25;56.88;;;102.70;1843.20;;;;;;5038306;28;20025;-69
2021/03/01 07:06:49;;;;;;;70.38;40.50;;;102.70;1843.20;;;;;;5055707;28;20040;-69
2021/03/01 07:09:19;;;;;;;61.10;30.60;;;102.70;1843.20;;;;;;5055834;28;20098;-68
2021/03/01 07:11:46;;;;;;;54.72;30.02;;;102.80;1843.20;;;;;;5056210;28;20374;-69
2021/03/01 07:14:15;;;;;;;52.95;26.35;;;102.90;1843.20;;;;;;5055989;28;20418;-69
2021/03/01 07:16:48;;;;;;;48.60;25.08;;;102.90;1843.20;;;;;;5056055;28;20029;-69
2021/03/01 07:19:17;;;;;;;52.85;27.00;;;103.00;1843.20;;;;;;5055963;28;20464;-69
2021/03/01 07:21:45;;;;;;;55.75;27.65;;;103.10;1843.20;;;;;;5055628;28;20036;-69
2021/03/01 07:24:11;;;;;;;74.45;31.17;;;103.20;1843.20;;;;;;5055844;28;20021;-67
2021/03/01 07:26:38;;;;;;;57.65;29.23;;;128.00;1868.80;;;;;;5055653;28;20490;-69
2021/03/01 07:29:09;;;;;;;61.90;27.48;;;128.20;1843.20;;;;;;5055654;28;20017;-68
2021/03/01 07:31:36;;;;;;;55.97;28.63;;;128.30;1817.60;;;;;;5055608;28;20037;-68
2021/03/01 07:34:11;;;;;;;53.33;26.20;;;128.60;1817.60;;;;;;5054871;28;20101;-68
2021/03/01 07:36:37;;;;;;;54.30;26.25;;;128.80;1792.00;;;;;;5054822;28;20045;-69
2021/03/01 07:39:08;;;;;;;65.22;26.25;;;153.70;1766.40;;;;;;5055528;28;20029;-69
2021/03/01 07:41:35;;;;;;;43.95;21.73;;;153.90;1740.80;;;;;;5055461;28;20050;-68
2021/03/01 07:44:02;;;;;;;41.70;20.08;;;154.10;1715.20;;;;;;5055429;28;20032;-68
2021/03/01 07:46:31;;;;;;;33.95;19.23;;;154.20;1715.20;;;;;;5037212;28;20036;-69
2021/03/01 07:48:57;;;;;;;42.25;20.73;;;154.40;1689.60;;;;;;5055214;28;20413;-69
2021/03/01 07:51:46;;;;;;;40.38;20.65;;;179.30;1689.60;;;;;;5054358;28;20021;-69
2021/03/01 07:54:13;;;;;;;42.08;18.98;;;179.60;1664.00;;;;;;5054845;28;20017;-68
2021/03/01 07:56:39;;;;;;;33.78;17.85;;;179.80;1638.40;;;;;;5054755;28;20486;-69
2021/03/01 07:59:10;;;;;;;35.40;18.77;;;180.10;1587.20;;;;;;5055191;28;20063;-69
2021/03/01 08:01:37;;;;;;;35.28;18.90;;;205.00;1587.20;;;;;;5054831;28;20032;-69
2021/03/01 08:04:04;;;;;;;30.00;18.35;;;205.30;1561.60;;;;;;5055016;28;20364;-69
2021/03/01 08:06:56;;;;;;;31.00;17.50;;;205.50;1536.00;;;;;;5054458;28;20025;-68
2021/03/01 08:09:44;;;;;;;26.42;16.17;;;230.50;1484.80;;;;;;5054906;28;20033;-69
2021/03/01 08:12:31;;;;;;;23.60;15.38;;;230.80;1459.20;;;;;;5054183;28;20033;-69
2021/03/01 08:14:59;;;;;;;27.38;16.83;;;231.00;1433.60;;;;;;5053496;28;20467;-69
2021/03/01 08:17:24;;;;;;;25.67;16.23;;;231.30;1408.00;;;;;;5054830;28;20032;-68
2021/03/01 08:19:51;;;;;;;22.42;15.55;;;256.20;1382.40;;;;;;5054768;28;20025;-69
2021/03/01 08:22:16;;;;;;;26.52;15.85;;;256.40;1356.80;;;;;;5054155;28;20025;-68
2021/03/01 08:24:50;;;;;;;24.27;14.63;;;256.70;1331.20;;;;;;5054875;28;20086;-69
2021/03/01 08:27:25;;;;;;;28.95;17.15;;;281.60;1331.20;;;;;;5053424;28;20044;-68
2021/03/01 08:30:20;;;;;;;29.52;17.70;;;281.70;1331.20;;;;;;5052462;28;20028;-70
2021/03/01 08:33:10;;;;;;;23.90;14.98;;;282.00;1280.00;;;;;;5053763;28;20101;-72
2021/03/01 08:35:41;;;;;;;25.80;17.15;;;282.20;1280.00;;;;;;5056025;28;20043;-71
2021/03/01 08:38:09;;;;;;;26.17;16.77;;;282.30;1280.00;;;;;;5055132;28;20048;-70
2021/03/01 08:40:35;;;;;;;30.77;19.45;;;282.50;1254.40;;;;;;5066572;28;20425;-70
2021/03/01 08:43:03;;;;;;;26.85;17.23;;;307.30;1280.00;;;;;;5072808;28;20028;-71
2021/03/01 08:45:30;;;;;;;25.63;16.05;;;307.40;1254.40;;;;;;5073258;28;20021;-71
2021/03/01 08:47:59;;;;;;;28.55;17.75;;;307.60;1254.40;;;;;;5074087;28;20056;-71
2021/03/01 08:50:44;;;;;;;31.73;17.55;;;307.70;1228.80;;;;;;5074213;28;20043;-71
2021/03/01 08:53:11;;;;;;;34.08;19.73;;;307.90;1228.80;;;;;;5073805;28;20037;-71
2021/03/01 08:55:39;;;;;;;22.95;15.57;;;308.10;1203.20;;;;;;5073952;28;20336;-71
2021/03/01 08:58:12;;;;;;;27.95;16.60;;;332.80;1228.80;;;;;;5073928;28;20020;-71
2021/03/01 09:00:49;;;;;;;27.05;15.73;;;332.90;1203.20;;;;;;5074045;28;20040;-70
2021/03/01 09:03:22;;;;;;;25.83;14.73;;;333.00;1203.20;;;;;;5073978;28;20108;-71
2021/03/01 09:06:03;;;;;;;24.90;14.43;;;333.20;1177.60;;;;;;5073990;28;20017;-71
2021/03/01 09:08:32;;;;;;;24.50;15.48;;;333.30;1177.60;;;;;;5073772;28;20033;-71
2021/03/01 09:11:00;;;;;;;29.42;15.00;;;333.50;1152.00;;;;;;5066724;28;20032;-70
2021/03/01 09:13:27;;;;;;;26.45;16.55;;;333.60;1152.00;;;;;;5053497;28;20428;-68
2021/03/01 09:15:53;;;;;;;29.50;16.75;;;358.40;1126.40;;;;;;5053730;28;20056;-69
2021/03/01 09:18:19;;;;;;;30.20;16.35;;;358.40;1126.40;;;;;;5052398;28;20059;-71
2021/03/01 09:20:51;;;;;;;29.25;16.02;;;358.50;1126.40;;;;;;5052820;28;20024;-71
